Main page
METAR-TAF:

METAR-TAF

Airports :

Mount Pleasant Municipal Airport

Mount Pleasant, Iowa, United States

latitude: 40-56-48N, longitude: 091-30-40W, elevation: 735 ft

Current weather observation

The report was made 17 minutes ago, at 21:55 UTC
Wind 7 mph from the North/Northwest
Temperature 27°F
Humidity 42%
Pressure 30.72 in. Hg
Visibility: 10 miles
Clear sky

METAR: KMPZ 202155Z AUTO 33006KT 10SM CLR M03/M14 A3072 RMK AO2

Time: 16:12 (22:12 UTC)


TAF: missing

Weather observations and forecasts of more than 4000 airports (METAR and TAF reports).

The available stations are represented by yellow and red dots on the map.

Hover mouse over dot to see the name of the station.

Then click to see weather observations and forecasts.

To change the map : click on the green buttons with a black cross to zoom in, on the green button with a dash to zoom out, or on the green arrows for adjacent maps.


METAR-TAF: